createdAt,value
2023-04-27T00:01:14.087Z,99095.25
2023-04-27T00:03:41.487Z,99093.56
2023-04-27T00:06:09.140Z,99090.84
2023-04-27T00:08:35.744Z,99088.25
2023-04-27T00:11:02.360Z,99088.25
2023-04-27T00:13:28.989Z,99089.97
2023-04-27T00:15:55.735Z,99089.88
2023-04-27T00:18:22.394Z,99091.69
2023-04-27T00:20:49.775Z,99093.50
2023-04-27T00:23:16.415Z,99088.25
2023-04-27T00:25:42.985Z,99087.34
2023-04-27T00:28:09.433Z,99094.34
2023-04-27T00:30:36.211Z,99090.88
2023-04-27T00:33:02.759Z,99090.88
2023-04-27T00:35:29.300Z,99090.84
2023-04-27T00:37:55.769Z,99092.53
2023-04-27T00:40:22.325Z,99090.69
2023-04-27T00:42:48.826Z,99097.63
2023-04-27T00:45:15.452Z,99093.25
2023-04-27T00:47:43.128Z,99086.25
2023-04-27T00:50:10.605Z,99094.91
2023-04-27T00:52:37.503Z,99100.13
2023-04-27T00:55:07.687Z,99103.59
2023-04-27T00:57:38.911Z,99100.13
2023-04-27T01:00:07.228Z,99091.28
2023-04-27T01:02:35.102Z,99093.94
2023-04-27T01:05:03.047Z,99093.81
2023-04-27T01:07:29.717Z,99090.34
2023-04-27T01:09:56.347Z,99097.16
2023-04-27T01:12:22.891Z,99102.31
2023-04-27T01:14:49.341Z,99098.00
2023-04-27T01:17:15.868Z,99103.25
2023-04-27T01:19:45.883Z,99097.03
2023-04-27T01:22:12.692Z,99103.88
2023-04-27T01:24:39.242Z,99094.84
2023-04-27T01:27:05.885Z,99107.50
2023-04-27T01:29:32.699Z,99097.63
2023-04-27T01:31:59.592Z,99097.84
2023-04-27T01:34:26.277Z,99096.97
2023-04-27T01:36:52.753Z,99104.88
2023-04-27T01:39:19.262Z,99107.44
2023-04-27T01:41:45.888Z,99109.16
2023-04-27T01:44:12.380Z,99107.41
2023-04-27T01:46:38.975Z,99115.28
2023-04-27T01:49:05.825Z,99113.59
2023-04-27T01:51:32.988Z,99116.09
2023-04-27T01:53:59.503Z,99121.34
2023-04-27T01:56:26.112Z,99122.22
2023-04-27T01:58:55.759Z,99125.63
2023-04-27T02:01:22.790Z,99126.44
2023-04-27T02:03:49.569Z,99132.59
2023-04-27T02:06:16.320Z,99128.13
2023-04-27T02:08:45.730Z,99134.22
2023-04-27T02:11:12.204Z,99139.31
2023-04-27T02:13:38.840Z,99145.38
2023-04-27T02:16:05.578Z,99145.38
2023-04-27T02:18:33.710Z,99142.81
2023-04-27T02:21:00.766Z,99152.28
2023-04-27T02:23:27.248Z,99152.19
2023-04-27T02:25:53.688Z,99150.50
2023-04-27T02:28:20.256Z,99159.13
2023-04-27T02:30:47.266Z,99159.25
2023-04-27T02:33:13.991Z,99157.53
2023-04-27T02:35:40.599Z,99165.47
2023-04-27T02:38:07.083Z,99167.28
2023-04-27T02:40:33.709Z,99172.56
2023-04-27T02:43:00.232Z,99167.38
2023-04-27T02:45:26.690Z,99167.47
2023-04-27T02:47:53.264Z,99169.31
2023-04-27T02:50:19.965Z,99175.44
2023-04-27T02:52:46.471Z,99174.59
2023-04-27T02:55:14.390Z,99170.19
2023-04-27T02:57:41.252Z,99171.16
2023-04-27T03:00:10.507Z,99172.00
2023-04-27T03:02:37.092Z,99172.88
2023-04-27T03:05:04.477Z,99182.53
2023-04-27T03:07:31.692Z,99179.84
2023-04-27T03:09:58.198Z,99183.34
2023-04-27T03:12:24.656Z,99180.75
2023-04-27T03:14:51.105Z,99174.66
2023-04-27T03:17:17.580Z,99173.00
2023-04-27T03:19:44.033Z,99168.78
2023-04-27T03:22:10.517Z,99179.41
2023-04-27T03:24:36.987Z,99179.59
2023-04-27T03:27:03.512Z,99173.56
2023-04-27T03:29:32.985Z,99172.59
2023-04-27T03:31:59.693Z,99177.84
2023-04-27T03:34:26.197Z,99175.06
2023-04-27T03:36:52.661Z,99177.66
2023-04-27T03:39:19.148Z,99180.47
2023-04-27T03:41:45.575Z,99172.72
2023-04-27T03:44:12.062Z,99180.63
2023-04-27T03:46:38.530Z,99181.53
2023-04-27T03:49:05.157Z,99181.47
2023-04-27T03:51:35.018Z,99190.00
2023-04-27T03:54:01.637Z,99190.91
2023-04-27T03:56:28.100Z,99186.50
2023-04-27T03:58:54.679Z,99179.50
2023-04-27T04:01:21.914Z,99183.00
2023-04-27T04:03:48.818Z,99189.13
2023-04-27T04:06:15.661Z,99180.41
2023-04-27T04:08:42.171Z,99187.38
2023-04-27T04:11:08.625Z,99184.72
2023-04-27T04:13:36.082Z,99190.84
2023-04-27T04:16:07.713Z,99190.84
2023-04-27T04:18:35.299Z,99191.84
2023-04-27T04:21:02.527Z,99197.00
2023-04-27T04:23:29.055Z,99193.34
2023-04-27T04:25:58.699Z,99197.78
2023-04-27T04:28:28.553Z,99196.03
2023-04-27T04:30:55.642Z,99194.19
2023-04-27T04:33:22.219Z,99195.06
2023-04-27T04:35:48.718Z,99192.44
2023-04-27T04:38:15.178Z,99199.47
2023-04-27T04:40:44.467Z,99201.19
2023-04-27T04:43:13.430Z,99201.06
2023-04-27T04:45:40.067Z,99201.84
2023-04-27T04:48:06.679Z,99207.00
2023-04-27T04:50:33.552Z,99199.94
2023-04-27T04:53:00.039Z,99201.00
2023-04-27T04:55:28.307Z,99201.03
2023-04-27T04:57:54.953Z,99198.44
2023-04-27T05:00:22.339Z,99205.41
2023-04-27T05:02:48.950Z,99215.72
2023-04-27T05:05:16.014Z,99214.84
2023-04-27T05:07:45.828Z,99214.81
2023-04-27T05:10:15.214Z,99218.25
2023-04-27T05:12:41.684Z,99219.13
2023-04-27T05:15:08.615Z,99216.47
2023-04-27T05:17:35.139Z,99221.72
2023-04-27T05:20:01.688Z,99221.72
2023-04-27T05:22:28.243Z,99228.59
2023-04-27T05:24:55.506Z,99233.06
2023-04-27T05:27:22.139Z,99229.78
2023-04-27T05:29:48.647Z,99235.25
2023-04-27T05:32:15.307Z,99237.00
2023-04-27T05:34:43.761Z,99237.16
2023-04-27T05:37:10.379Z,99241.56
2023-04-27T05:39:36.984Z,99254.72
2023-04-27T05:42:03.533Z,99246.34
2023-04-27T05:44:30.028Z,99245.25
2023-04-27T05:46:56.468Z,99250.06
2023-04-27T05:49:23.526Z,99248.06
2023-04-27T05:51:50.103Z,99256.59
2023-04-27T05:54:16.753Z,99256.59
2023-04-27T05:56:43.409Z,99253.31
2023-04-27T05:59:09.938Z,99269.09
2023-04-27T06:01:36.841Z,99264.72
2023-04-27T06:04:03.857Z,99263.81
2023-04-27T06:06:35.354Z,99251.81
2023-04-27T06:09:01.982Z,99256.38
2023-04-27T06:11:28.646Z,99255.19
2023-04-27T06:13:55.372Z,99256.25
2023-04-27T06:16:22.223Z,99252.00
2023-04-27T06:18:50.560Z,99260.03
2023-04-27T06:21:17.244Z,99271.00
2023-04-27T06:23:43.671Z,99270.50
2023-04-27T06:26:10.327Z,99280.03
2023-04-27T06:28:36.815Z,99276.28
2023-04-27T06:31:03.584Z,99277.44
2023-04-27T06:33:30.029Z,99289.06
2023-04-27T06:35:56.494Z,99276.72
2023-04-27T06:38:23.022Z,99286.16
2023-04-27T06:40:55.172Z,99295.63
2023-04-27T06:43:21.839Z,99291.19
2023-04-27T06:45:48.443Z,99297.41
2023-04-27T06:48:15.045Z,99300.47
2023-04-27T06:50:41.612Z,99292.81
2023-04-27T06:53:08.312Z,99289.22
2023-04-27T06:55:35.064Z,99285.91
2023-04-27T06:58:03.433Z,99289.00
2023-04-27T07:00:33.560Z,99283.75
2023-04-27T07:03:00.101Z,99280.91
2023-04-27T07:05:27.284Z,99288.47
2023-04-27T07:07:56.874Z,99294.44
2023-04-27T07:10:23.330Z,99297.41
2023-04-27T07:12:49.864Z,99301.13
2023-04-27T07:15:16.619Z,99310.06
2023-04-27T07:17:43.185Z,99304.88
2023-04-27T07:20:09.759Z,99300.16
2023-04-27T07:22:36.461Z,99300.47
2023-04-27T07:25:03.915Z,99292.47
2023-04-27T07:27:31.910Z,99284.88
2023-04-27T07:29:58.847Z,99276.56
2023-04-27T07:32:25.490Z,99280.38
2023-04-27T07:34:54.550Z,99289.31
2023-04-27T07:37:22.278Z,99290.00
2023-04-27T07:39:50.534Z,99288.53
2023-04-27T07:42:17.073Z,99293.34
2023-04-27T07:44:43.598Z,99288.03
2023-04-27T07:47:10.677Z,99289.53
2023-04-27T07:49:37.519Z,99281.78
2023-04-27T07:52:08.415Z,99283.81
2023-04-27T07:54:35.253Z,99286.59
2023-04-27T07:57:02.257Z,99289.13
2023-04-27T07:59:30.191Z,99291.25
2023-04-27T08:02:04.203Z,99290.00
2023-04-27T08:04:33.941Z,99289.81
2023-04-27T08:07:01.389Z,99295.22
2023-04-27T08:09:27.990Z,99301.75
2023-04-27T08:11:57.400Z,99302.19
2023-04-27T08:14:23.923Z,99302.03
2023-04-27T08:16:52.026Z,99295.94
2023-04-27T08:19:18.614Z,99294.81
2023-04-27T08:21:45.092Z,99283.38
2023-04-27T08:24:11.637Z,99279.47
2023-04-27T08:26:38.245Z,99282.63
2023-04-27T08:29:15.346Z,99282.97
2023-04-27T08:31:50.839Z,99289.03
2023-04-27T08:34:18.207Z,99284.72
2023-04-27T08:36:44.662Z,99277.66
2023-04-27T08:39:11.441Z,99288.47
2023-04-27T08:41:43.232Z,99289.47
2023-04-27T08:44:09.849Z,99288.47
2023-04-27T08:46:38.496Z,99287.19
2023-04-27T08:49:06.189Z,99286.56
2023-04-27T08:51:33.405Z,99286.00
2023-04-27T08:54:00.206Z,99282.19
2023-04-27T08:56:29.375Z,99272.53
2023-04-27T08:58:57.169Z,99281.09
2023-04-27T09:01:25.304Z,99274.94
2023-04-27T09:04:00.317Z,99277.06
2023-04-27T09:06:34.666Z,99274.06
2023-04-27T09:09:02.523Z,99273.13
2023-04-27T09:11:37.956Z,99280.56
2023-04-27T09:14:19.434Z,99287.97
2023-04-27T09:16:46.350Z,99282.22
2023-04-27T09:19:25.699Z,99284.44
2023-04-27T09:22:03.616Z,99280.69
2023-04-27T09:24:30.146Z,99276.56
2023-04-27T09:26:57.562Z,99275.28
2023-04-27T09:29:38.688Z,99279.91
2023-04-27T09:32:20.743Z,99267.63
2023-04-27T09:34:47.270Z,99265.06
2023-04-27T09:37:14.532Z,99267.66
2023-04-27T09:39:42.005Z,99269.50
2023-04-27T09:42:09.211Z,99268.59
2023-04-27T09:44:36.242Z,99275.25
2023-04-27T09:47:02.734Z,99274.13
2023-04-27T09:49:29.387Z,99276.56
2023-04-27T09:51:58.701Z,99274.81
2023-04-27T09:54:30.035Z,99266.31
2023-04-27T09:57:15.946Z,99257.88
2023-04-27T10:00:02.602Z,99262.53
2023-04-27T10:02:50.080Z,99255.56
2023-04-27T10:05:34.420Z,99262.66
2023-04-27T10:08:02.521Z,99253.78
2023-04-27T10:10:28.995Z,99259.03
2023-04-27T10:13:01.390Z,99245.84
2023-04-27T10:15:30.115Z,99259.16
2023-04-27T10:18:04.606Z,99252.16
2023-04-27T10:20:33.555Z,99257.44
2023-04-27T10:23:00.869Z,99252.19
2023-04-27T10:25:40.531Z,99249.50
2023-04-27T10:28:09.991Z,99259.25
2023-04-27T10:30:39.210Z,99264.50
2023-04-27T10:33:10.932Z,99265.41
2023-04-27T10:35:45.958Z,99261.59
2023-04-27T10:38:17.468Z,99266.16
2023-04-27T10:40:45.597Z,99262.75
2023-04-27T10:43:14.254Z,99258.34
2023-04-27T10:45:41.924Z,99260.09
2023-04-27T10:48:08.916Z,99258.34
2023-04-27T10:50:35.703Z,99249.50
2023-04-27T10:53:07.752Z,99248.59
2023-04-27T10:55:35.547Z,99246.84
2023-04-27T10:58:02.589Z,99239.78
2023-04-27T11:00:38.692Z,99235.38
2023-04-27T11:03:16.810Z,99238.94
2023-04-27T11:05:45.284Z,99232.75
2023-04-27T11:08:14.190Z,99238.88
2023-04-27T11:10:44.503Z,99232.75
2023-04-27T11:13:13.334Z,99227.41
2023-04-27T11:15:58.088Z,99232.72
2023-04-27T11:18:36.866Z,99232.75
2023-04-27T11:21:15.322Z,99225.66
2023-04-27T11:23:42.761Z,99226.56
2023-04-27T11:26:19.800Z,99226.56
2023-04-27T11:28:57.578Z,99232.72
2023-04-27T11:31:27.264Z,99221.25
2023-04-27T11:33:56.092Z,99230.09
2023-04-27T11:36:23.800Z,99227.44
2023-04-27T11:38:50.441Z,99231.84
2023-04-27T11:41:17.635Z,99224.78
2023-04-27T11:43:49.512Z,99223.91
2023-04-27T11:46:21.321Z,99230.09
2023-04-27T11:48:47.903Z,99234.50
2023-04-27T11:51:14.456Z,99225.66
2023-04-27T11:53:42.373Z,99231.84
2023-04-27T11:56:11.025Z,99229.19
2023-04-27T11:58:38.768Z,99237.19
2023-04-27T12:01:06.806Z,99233.63
2023-04-27T12:03:33.960Z,99236.28
2023-04-27T12:06:15.839Z,99230.13
2023-04-27T12:08:47.343Z,99235.38
2023-04-27T12:11:13.822Z,99235.38
2023-04-27T12:13:40.761Z,99240.66
2023-04-27T12:16:07.466Z,99228.22
2023-04-27T12:18:34.072Z,99221.00
2023-04-27T12:21:03.110Z,99220.09
2023-04-27T12:23:30.053Z,99212.25
2023-04-27T12:25:56.536Z,99214.06
2023-04-27T12:28:23.464Z,99217.63
2023-04-27T12:30:50.121Z,99203.44
2023-04-27T12:33:17.283Z,99212.25
2023-04-27T12:35:43.825Z,99212.31
2023-04-27T12:38:10.332Z,99211.50
2023-04-27T12:40:39.579Z,99210.63
2023-04-27T12:43:08.287Z,99213.28
2023-04-27T12:45:34.742Z,99210.63
2023-04-27T12:48:03.488Z,99208.84
2023-04-27T12:50:32.689Z,99205.34
2023-04-27T12:53:01.389Z,99200.06
2023-04-27T12:57:58.266Z,99205.34
2023-04-27T13:00:27.748Z,99198.19
2023-04-27T13:02:56.601Z,99202.59
2023-04-27T13:05:23.439Z,99199.09
2023-04-27T13:07:49.928Z,99202.69
2023-04-27T13:10:16.516Z,99201.81
2023-04-27T13:12:43.058Z,99200.00
2023-04-27T13:15:10.170Z,99199.88
2023-04-27T13:17:41.701Z,99197.31
2023-04-27T13:20:10.772Z,99191.13
2023-04-27T13:22:37.282Z,99185.88
2023-04-27T13:25:06.002Z,99187.53
2023-04-27T13:27:32.479Z,99191.97
2023-04-27T13:29:58.967Z,99185.81
2023-04-27T13:32:28.256Z,99196.47
2023-04-27T13:34:54.767Z,99187.63
2023-04-27T13:37:21.730Z,99184.13
2023-04-27T13:39:48.214Z,99192.88
2023-04-27T13:42:14.664Z,99194.59
2023-04-27T13:44:41.393Z,99186.69
2023-04-27T13:47:08.099Z,99189.38
2023-04-27T13:49:34.713Z,99187.56
2023-04-27T13:52:01.378Z,99186.72
2023-04-27T13:54:28.681Z,99184.97
2023-04-27T13:56:55.198Z,99188.53
2023-04-27T13:59:21.784Z,99185.88
2023-04-27T14:01:48.366Z,99186.72
2023-04-27T14:04:14.955Z,99184.09
2023-04-27T14:06:41.604Z,99182.34
2023-04-27T14:09:09.242Z,99177.06
2023-04-27T14:11:48.602Z,99181.50
2023-04-27T14:14:22.759Z,99181.50
2023-04-27T14:16:51.405Z,99172.63
2023-04-27T14:19:20.219Z,99177.06
2023-04-27T14:21:47.736Z,99172.63
2023-04-27T14:24:14.276Z,99166.47
2023-04-27T14:26:43.973Z,99175.31
2023-04-27T14:29:11.601Z,99169.97
2023-04-27T14:31:39.343Z,99173.53
2023-04-27T14:34:06.918Z,99165.56
2023-04-27T14:36:33.962Z,99161.16
2023-04-27T14:39:01.184Z,99155.84
2023-04-27T14:41:28.457Z,99158.50
2023-04-27T14:43:55.026Z,99152.31
2023-04-27T14:46:22.072Z,99150.56
2023-04-27T14:48:49.612Z,99161.16
2023-04-27T14:51:16.757Z,99160.25
2023-04-27T14:53:43.971Z,99160.25
2023-04-27T14:56:11.122Z,99154.97
2023-04-27T14:58:37.634Z,99159.38
2023-04-27T15:01:04.208Z,99155.84
2023-04-27T15:03:32.691Z,99155.84
2023-04-27T15:06:00.198Z,99156.75
2023-04-27T15:08:26.895Z,99162.91
2023-04-27T15:10:59.665Z,99152.34
2023-04-27T15:13:29.223Z,99147.03
2023-04-27T15:15:57.378Z,99150.56
2023-04-27T15:18:25.083Z,99153.22
2023-04-27T15:20:55.906Z,99155.84
2023-04-27T15:23:23.144Z,99153.19
2023-04-27T15:25:51.844Z,99151.41
2023-04-27T15:28:18.582Z,99152.34
2023-04-27T15:30:45.711Z,99154.06
2023-04-27T15:33:15.815Z,99149.66
2023-04-27T15:35:42.713Z,99147.88
2023-04-27T15:38:14.988Z,99162.84
2023-04-27T15:41:01.710Z,99161.09
2023-04-27T15:43:28.184Z,99152.25
2023-04-27T15:45:54.929Z,99148.75
2023-04-27T15:48:21.392Z,99143.44
2023-04-27T15:50:47.847Z,99146.09
2023-04-27T15:53:14.305Z,99148.72
2023-04-27T15:55:40.832Z,99139.84
2023-04-27T15:58:10.544Z,99144.28
2023-04-27T16:00:37.142Z,99151.31
2023-04-27T16:03:04.396Z,99143.38
2023-04-27T16:05:31.181Z,99132.84
2023-04-27T16:07:57.697Z,99133.72
2023-04-27T16:10:24.152Z,99136.34
2023-04-27T16:12:50.624Z,99124.00
2023-04-27T16:15:17.319Z,99126.63
2023-04-27T16:17:43.818Z,99128.38
2023-04-27T16:20:11.783Z,99121.34
2023-04-27T16:22:38.313Z,99127.47
2023-04-27T16:25:10.181Z,99124.81
2023-04-27T16:27:37.998Z,99115.09
2023-04-27T16:30:05.641Z,99114.25
2023-04-27T16:32:34.500Z,99118.66
2023-04-27T16:35:01.945Z,99111.59
2023-04-27T16:37:28.425Z,99116.84
2023-04-27T16:39:54.946Z,99116.84
2023-04-27T16:42:24.676Z,99112.44
2023-04-27T16:44:51.459Z,99117.72
2023-04-27T16:47:18.116Z,99114.19
2023-04-27T16:49:44.759Z,99109.78
2023-04-27T16:52:11.877Z,99107.16
2023-04-27T16:54:38.357Z,99116.84
2023-04-27T16:57:04.924Z,99119.50
2023-04-27T16:59:31.467Z,99112.44
2023-04-27T17:02:03.739Z,99116.81
2023-04-27T17:04:39.997Z,99129.19
2023-04-27T17:07:07.374Z,99123.91
2023-04-27T17:09:36.568Z,99124.78
2023-04-27T17:12:04.062Z,99129.16
2023-04-27T17:14:30.681Z,99129.16
2023-04-27T17:16:57.175Z,99126.50
2023-04-27T17:19:24.193Z,99125.56
2023-04-27T17:21:50.815Z,99132.63
2023-04-27T17:24:17.299Z,99130.84
2023-04-27T17:26:43.875Z,99129.94
2023-04-27T17:29:10.549Z,99121.13
2023-04-27T17:31:37.178Z,99125.47
2023-04-27T17:34:06.629Z,99120.19
2023-04-27T17:36:33.111Z,99125.41
2023-04-27T17:39:01.220Z,99118.31
2023-04-27T17:41:28.544Z,99120.06
2023-04-27T17:43:55.106Z,99124.47
2023-04-27T17:46:21.588Z,99117.34
2023-04-27T17:48:48.149Z,99109.44
2023-04-27T17:51:15.687Z,99111.19
2023-04-27T17:53:42.713Z,99101.44
2023-04-27T17:56:09.279Z,99097.00
2023-04-27T17:58:36.260Z,99103.16
2023-04-27T18:01:02.770Z,99096.06
2023-04-27T18:03:29.621Z,99098.72
2023-04-27T18:05:56.241Z,99099.50
2023-04-27T18:08:22.789Z,99103.03
2023-04-27T18:10:49.354Z,99102.13
2023-04-27T18:13:18.867Z,99111.81
2023-04-27T18:15:45.677Z,99103.81
2023-04-27T18:18:16.706Z,99103.84
2023-04-27T18:20:44.857Z,99110.88
2023-04-27T18:23:11.374Z,99105.56
2023-04-27T18:25:37.861Z,99115.16
2023-04-27T18:28:05.833Z,99109.91
2023-04-27T18:30:33.037Z,99111.63
2023-04-27T18:32:59.521Z,99113.28
2023-04-27T18:35:26.002Z,99115.06
2023-04-27T18:37:52.503Z,99104.47
2023-04-27T18:40:20.995Z,99109.66
2023-04-27T18:42:48.118Z,99114.06
2023-04-27T18:45:16.154Z,99107.00
2023-04-27T18:47:42.671Z,99106.91
2023-04-27T18:50:10.788Z,99102.44
2023-04-27T18:52:37.212Z,99104.16
2023-04-27T18:55:04.047Z,99111.19
2023-04-27T18:57:30.643Z,99110.31
2023-04-27T18:59:57.244Z,99112.03
2023-04-27T19:02:25.753Z,99113.78
2023-04-27T19:05:01.669Z,99109.19
2023-04-27T19:07:37.249Z,99108.25
2023-04-27T19:10:04.091Z,99119.69
2023-04-27T19:12:31.330Z,99117.06
2023-04-27T19:14:57.822Z,99113.44
2023-04-27T19:17:24.513Z,99122.91
2023-04-27T19:19:51.131Z,99126.41
2023-04-27T19:22:17.642Z,99121.94
2023-04-27T19:24:44.102Z,99116.72
2023-04-27T19:27:11.812Z,99115.75
2023-04-27T19:29:50.232Z,99121.84
2023-04-27T19:32:16.930Z,99113.13
2023-04-27T19:34:43.369Z,99118.38
2023-04-27T19:37:09.870Z,99120.03
2023-04-27T19:39:36.415Z,99123.50
2023-04-27T19:42:02.938Z,99111.28
2023-04-27T19:44:29.401Z,99110.47
2023-04-27T19:46:55.916Z,99105.28
2023-04-27T19:49:22.421Z,99103.59
2023-04-27T19:51:48.896Z,99103.56
2023-04-27T19:54:15.525Z,99100.03
2023-04-27T19:56:42.431Z,99092.88
2023-04-27T19:59:12.196Z,99097.16
2023-04-27T20:01:38.794Z,99089.19
2023-04-27T20:04:05.643Z,99093.50
2023-04-27T20:06:33.279Z,99088.13
2023-04-27T20:08:59.844Z,99095.06
2023-04-27T20:11:26.816Z,99091.50
2023-04-27T20:13:53.297Z,99090.53
2023-04-27T20:16:19.905Z,99094.16
2023-04-27T20:18:46.546Z,99087.31
2023-04-27T20:21:13.096Z,99092.78
2023-04-27T20:23:39.543Z,99090.25
2023-04-27T20:26:09.063Z,99088.53
2023-04-27T20:28:35.594Z,99091.22
2023-04-27T20:31:05.207Z,99089.50
2023-04-27T20:33:35.140Z,99093.00
2023-04-27T20:36:14.294Z,99086.03
2023-04-27T20:38:44.606Z,99090.41
2023-04-27T20:41:14.689Z,99085.16
2023-04-27T20:43:41.180Z,99091.28
2023-04-27T20:46:08.035Z,99087.78
2023-04-27T20:48:34.669Z,99085.13
2023-04-27T20:51:01.344Z,99091.28
2023-04-27T20:53:31.516Z,99083.38
2023-04-27T20:55:57.987Z,99087.78
2023-04-27T20:58:24.803Z,99083.38
2023-04-27T21:00:52.584Z,99086.84
2023-04-27T21:03:19.388Z,99085.09
2023-04-27T21:05:46.573Z,99086.81
2023-04-27T21:08:13.074Z,99089.41
2023-04-27T21:10:39.594Z,99078.06
2023-04-27T21:13:06.080Z,99083.31
2023-04-27T21:15:36.201Z,99075.34
2023-04-27T21:18:05.038Z,99070.06
2023-04-27T21:20:33.255Z,99074.47
2023-04-27T21:22:59.853Z,99074.44
2023-04-27T21:25:28.294Z,99074.44
2023-04-27T21:27:54.879Z,99077.06
2023-04-27T21:30:21.439Z,99072.69
2023-04-27T21:32:47.958Z,99063.03
2023-04-27T21:35:17.919Z,99062.19
2023-04-27T21:37:44.399Z,99058.72
2023-04-27T21:40:11.288Z,99062.28
2023-04-27T21:42:38.055Z,99065.81
2023-04-27T21:45:04.878Z,99064.91
2023-04-27T21:47:31.438Z,99054.34
2023-04-27T21:49:57.928Z,99042.91
2023-04-27T21:52:24.473Z,99044.66
2023-04-27T21:54:50.983Z,99047.28
2023-04-27T21:57:19.464Z,99043.72
2023-04-27T21:59:46.568Z,99049.88
2023-04-27T22:02:13.618Z,99041.97
2023-04-27T22:04:40.381Z,99044.59
2023-04-27T22:07:10.341Z,99037.56
2023-04-27T22:09:36.945Z,99043.69
2023-04-27T22:12:06.980Z,99041.81
2023-04-27T22:14:36.136Z,99035.63
2023-04-27T22:17:11.764Z,99028.63
2023-04-27T22:19:38.412Z,99027.75
2023-04-27T22:22:05.050Z,99025.97
2023-04-27T22:24:31.565Z,99024.19
2023-04-27T22:26:58.026Z,99012.72
2023-04-27T22:29:24.592Z,99018.84
2023-04-27T22:31:52.029Z,99016.16
2023-04-27T22:34:18.774Z,99016.16
2023-04-27T22:36:45.384Z,99010.78
2023-04-27T22:39:12.162Z,99006.41
2023-04-27T22:41:38.684Z,99008.97
2023-04-27T22:44:05.234Z,99004.56
2023-04-27T22:46:31.807Z,99002.78
2023-04-27T22:49:01.474Z,98998.34
2023-04-27T22:51:27.928Z,99000.09
2023-04-27T22:53:54.639Z,98990.44
2023-04-27T22:56:21.170Z,98991.28
2023-04-27T22:58:47.701Z,98988.53
2023-04-27T23:01:18.427Z,98990.25
2023-04-27T23:03:45.108Z,98980.44
2023-04-27T23:06:14.916Z,98983.88
2023-04-27T23:08:49.152Z,98975.19
2023-04-27T23:11:19.358Z,98971.59
2023-04-27T23:13:50.227Z,98965.19
2023-04-27T23:16:19.711Z,98966.78
2023-04-27T23:18:46.823Z,98962.31
2023-04-27T23:21:13.305Z,98960.31
2023-04-27T23:23:42.435Z,98956.75
2023-04-27T23:26:16.346Z,98942.72
2023-04-27T23:28:46.055Z,98947.13
2023-04-27T23:31:12.778Z,98942.81
2023-04-27T23:33:39.286Z,98947.34
2023-04-27T23:36:06.433Z,98935.97
2023-04-27T23:38:33.144Z,98937.75
2023-04-27T23:40:59.714Z,98936.00
2023-04-27T23:43:27.491Z,98928.91
2023-04-27T23:45:54.109Z,98939.47
2023-04-27T23:48:20.630Z,98928.97
2023-04-27T23:50:47.138Z,98919.22
2023-04-27T23:53:13.599Z,98922.63
2023-04-27T23:55:40.164Z,98921.78
2023-04-27T23:58:09.398Z,98921.88
